Terminal Aerodrome Forecast
Issued by NWS

Home | Current Version | Previous Version | Text Only | Print | Product List | Glossary On
Versions: 1 2 3 4 5 6 7 8 9 10 11 12 13 14 15 16
000
FTUS41 KBTV 281739
TAFRUT
TAF
KRUT 281739Z 2818/2918 24007KT P6SM OVC070
     FM290200 13006KT P6SM SCT070
     FM291200 13010G20KT P6SM VCSH OVC050
     FM291500 13010G20KT 3SM -SHRA BR OVC020=

USA.gov is the U.S. government's official web portal to all federal, state and local government web resources and services.